createdAt,value
2023-03-01T00:01:39.958Z,9.63
2023-03-01T00:05:47.865Z,10.17
2023-03-01T00:09:50.859Z,10.07
2023-03-01T00:13:55.686Z,10.40
2023-03-01T00:17:58.634Z,11.47
2023-03-01T00:22:03.493Z,9.53
2023-03-01T00:26:09.505Z,10.53
2023-03-01T00:30:14.426Z,11.10
2023-03-01T00:34:17.442Z,11.53
2023-03-01T00:38:21.865Z,10.97
2023-03-01T00:42:26.136Z,10.30
2023-03-01T00:46:31.519Z,10.60
2023-03-01T00:50:34.901Z,11.23
2023-03-01T00:54:40.358Z,9.90
2023-03-01T00:58:43.777Z,10.27
2023-03-01T01:02:46.880Z,10.20
2023-03-01T01:06:49.867Z,10.77
2023-03-01T01:10:54.300Z,11.33
2023-03-01T01:14:57.321Z,11.50
2023-03-01T01:19:00.427Z,11.17
2023-03-01T01:23:04.859Z,10.57
2023-03-01T01:27:09.382Z,10.57
2023-03-01T01:31:12.428Z,11.30
2023-03-01T01:35:15.529Z,10.97
2023-03-01T01:39:19.288Z,10.90
2023-03-01T01:43:26.250Z,11.00
2023-03-01T01:47:35.079Z,11.23
2023-03-01T01:51:41.148Z,10.73
2023-03-01T01:55:47.437Z,12.93
2023-03-01T01:59:54.770Z,11.33
2023-03-01T02:03:58.191Z,12.20
2023-03-01T02:08:01.857Z,12.47
2023-03-01T02:12:06.857Z,11.00
2023-03-01T02:16:13.741Z,10.93
2023-03-01T02:20:25.325Z,11.87
2023-03-01T02:24:36.114Z,12.93
2023-03-01T02:28:42.391Z,13.30
2023-03-01T02:32:45.693Z,11.83
2023-03-01T02:36:51.940Z,11.97
2023-03-01T02:40:56.849Z,11.80
2023-03-01T02:45:01.259Z,12.20
2023-03-01T02:49:04.402Z,12.97
2023-03-01T02:53:15.297Z,12.77
2023-03-01T02:57:18.766Z,13.07
2023-03-01T03:01:24.110Z,12.20
2023-03-01T03:05:29.623Z,12.57
2023-03-01T03:09:34.074Z,12.57
2023-03-01T03:13:37.201Z,12.83
2023-03-01T03:17:45.266Z,12.27
2023-03-01T03:21:50.636Z,12.60
2023-03-01T03:25:53.934Z,12.40
2023-03-01T03:29:57.307Z,12.53
2023-03-01T03:34:01.627Z,12.93
2023-03-01T03:38:10.294Z,12.80
2023-03-01T03:42:13.245Z,12.13
2023-03-01T03:46:16.439Z,14.10
2023-03-01T03:50:21.081Z,12.97
2023-03-01T03:54:24.327Z,13.23
2023-03-01T03:58:27.910Z,12.90
2023-03-01T04:02:31.008Z,12.30
2023-03-01T04:06:35.528Z,13.60
2023-03-01T04:10:40.683Z,13.13
2023-03-01T04:14:43.741Z,13.03
2023-03-01T04:18:46.951Z,13.50
2023-03-01T04:22:51.265Z,13.20
2023-03-01T04:26:54.518Z,12.37
2023-03-01T04:30:59.006Z,12.73
2023-03-01T04:35:02.350Z,13.33
2023-03-01T04:39:13.176Z,11.87
2023-03-01T04:43:16.610Z,13.40
2023-03-01T04:47:19.637Z,13.50
2023-03-01T04:51:22.969Z,12.53
2023-03-01T04:55:28.485Z,13.03
2023-03-01T04:59:31.754Z,12.50
2023-03-01T05:03:34.720Z,12.53
2023-03-01T05:07:37.756Z,12.33
2023-03-01T05:11:42.101Z,12.30
2023-03-01T05:15:45.190Z,12.43
2023-03-01T05:19:48.272Z,12.60
2023-03-01T05:23:51.503Z,12.50
2023-03-01T05:27:56.093Z,12.87
2023-03-01T05:32:01.963Z,11.60
2023-03-01T05:36:05.838Z,13.27
2023-03-01T05:40:16.518Z,12.40
2023-03-01T05:44:21.245Z,11.33
2023-03-01T05:48:24.363Z,12.80
2023-03-01T05:52:27.297Z,12.50
2023-03-01T05:56:31.354Z,12.70
2023-03-01T06:00:36.481Z,11.07
2023-03-01T06:04:39.910Z,12.23
2023-03-01T06:08:42.901Z,11.30
2023-03-01T06:12:46.682Z,11.83
2023-03-01T06:16:51.020Z,12.40
2023-03-01T06:20:58.058Z,11.87
2023-03-01T06:25:01.066Z,12.97
2023-03-01T06:29:04.386Z,12.13
2023-03-01T06:33:08.793Z,13.03
2023-03-01T06:37:12.346Z,12.57
2023-03-01T06:41:15.308Z,12.13
2023-03-01T06:45:19.826Z,12.57
2023-03-01T06:49:24.453Z,11.67
2023-03-01T06:53:27.508Z,11.93
2023-03-01T06:57:30.954Z,12.63
2023-03-01T07:01:34.011Z,10.67
2023-03-01T07:05:38.559Z,12.97
2023-03-01T07:09:41.693Z,10.80
2023-03-01T07:13:44.650Z,11.53
2023-03-01T07:17:49.014Z,12.60
2023-03-01T07:21:53.605Z,12.50
2023-03-01T07:25:57.121Z,13.63
2023-03-01T07:30:00.340Z,11.97
2023-03-01T07:34:03.443Z,12.23
2023-03-01T07:38:07.797Z,11.53
2023-03-01T07:42:11.136Z,11.93
2023-03-01T07:46:14.116Z,12.27
2023-03-01T07:50:17.840Z,12.97
2023-03-01T07:54:22.588Z,12.70
2023-03-01T07:58:25.794Z,11.90
2023-03-01T08:02:28.742Z,12.80
2023-03-01T08:06:32.397Z,12.03
2023-03-01T08:10:38.437Z,12.83
2023-03-01T08:14:41.563Z,11.02
2023-03-01T08:18:45.446Z,11.95
2023-03-01T08:22:48.629Z,11.43
2023-03-01T08:26:52.954Z,12.73
2023-03-01T08:30:56.253Z,12.07
2023-03-01T08:34:59.384Z,12.90
2023-03-01T08:39:02.809Z,11.27
2023-03-01T08:43:07.179Z,12.82
2023-03-01T08:47:10.356Z,12.60
2023-03-01T08:51:16.069Z,11.45
2023-03-01T08:55:19.233Z,12.00
2023-03-01T08:59:23.804Z,12.50
2023-03-01T09:03:27.373Z,11.20
2023-03-01T09:07:30.428Z,11.82
2023-03-01T09:11:34.291Z,11.55
2023-03-01T09:15:40.384Z,12.15
2023-03-01T09:19:43.455Z,10.20
2023-03-01T09:23:48.044Z,11.90
2023-03-01T09:27:53.290Z,12.10
2023-03-01T09:31:57.838Z,11.95
2023-03-01T09:36:01.433Z,12.18
2023-03-01T09:40:06.329Z,12.13
2023-03-01T09:44:18.391Z,12.57
2023-03-01T09:48:26.141Z,11.85
2023-03-01T09:52:34.918Z,11.68
2023-03-01T09:56:41.834Z,11.85
2023-03-01T10:00:47.329Z,11.02
2023-03-01T10:04:53.159Z,10.90
2023-03-01T10:09:00.752Z,11.85
2023-03-01T10:13:09.155Z,11.07
2023-03-01T10:17:22.027Z,11.05
2023-03-01T10:21:30.379Z,11.65
2023-03-01T10:25:47.028Z,10.35
2023-03-01T10:30:00.565Z,11.20
2023-03-01T10:34:03.959Z,10.95
2023-03-01T10:38:10.419Z,9.90
2023-03-01T10:42:32.483Z,9.88
2023-03-01T10:46:38.685Z,10.32
2023-03-01T10:50:42.801Z,9.20
2023-03-01T10:54:54.915Z,9.32
2023-03-01T10:59:03.070Z,10.23
2023-03-01T11:03:14.091Z,10.23
2023-03-01T11:07:17.199Z,10.18
2023-03-01T11:11:28.351Z,9.75
2023-03-01T11:15:31.908Z,9.63
2023-03-01T11:19:35.337Z,8.35
2023-03-01T11:23:41.746Z,8.30
2023-03-01T11:27:47.608Z,7.90
2023-03-01T11:31:57.887Z,8.45
2023-03-01T11:36:05.424Z,8.60
2023-03-01T11:40:15.782Z,8.02
2023-03-01T11:44:25.357Z,7.72
2023-03-01T11:48:49.715Z,6.82
2023-03-01T11:53:03.871Z,8.07
2023-03-01T11:57:20.790Z,7.88
2023-03-01T12:01:39.751Z,7.90
2023-03-01T12:06:07.658Z,7.25
2023-03-01T12:10:24.434Z,7.78
2023-03-01T12:14:50.425Z,8.07
2023-03-01T12:19:13.152Z,7.78
2023-03-01T12:23:41.101Z,8.25
2023-03-01T12:28:16.490Z,7.63
2023-03-01T12:32:42.316Z,7.68
2023-03-01T12:36:59.994Z,7.70
2023-03-01T12:41:25.369Z,8.15
2023-03-01T12:45:42.491Z,8.43
2023-03-01T12:49:50.322Z,8.80
2023-03-01T12:53:57.086Z,8.55
2023-03-01T12:58:10.728Z,9.00
2023-03-01T13:02:24.048Z,8.85
2023-03-01T13:06:43.336Z,8.82
2023-03-01T13:10:52.482Z,9.00
2023-03-01T13:14:56.803Z,8.55
2023-03-01T13:19:10.905Z,8.57
2023-03-01T13:23:29.766Z,9.35
2023-03-01T13:27:34.153Z,9.48
2023-03-01T13:32:01.682Z,9.20
2023-03-01T13:36:08.110Z,9.23
2023-03-01T13:40:48.397Z,8.77
2023-03-01T13:44:52.820Z,8.52
2023-03-01T13:48:58.806Z,8.90
2023-03-01T13:53:05.275Z,9.82
2023-03-01T13:57:21.515Z,8.85
2023-03-01T14:01:29.943Z,9.02
2023-03-01T14:05:33.668Z,10.18
2023-03-01T14:09:42.204Z,9.50
2023-03-01T14:14:00.823Z,9.57
2023-03-01T14:18:15.005Z,9.32
2023-03-01T14:22:24.047Z,9.57
2023-03-01T14:26:27.538Z,9.45
2023-03-01T14:30:35.051Z,9.35
2023-03-01T14:34:45.546Z,9.13
2023-03-01T14:38:49.716Z,9.52
2023-03-01T14:42:53.666Z,8.70
2023-03-01T14:46:58.393Z,9.23
2023-03-01T14:51:03.496Z,9.27
2023-03-01T14:55:09.540Z,9.00
2023-03-01T14:59:13.395Z,9.35
2023-03-01T15:03:25.775Z,8.85
2023-03-01T15:07:33.610Z,8.07
2023-03-01T15:11:38.021Z,8.75
2023-03-01T15:15:44.925Z,8.25
2023-03-01T15:19:48.746Z,8.40
2023-03-01T15:23:56.461Z,9.18
2023-03-01T15:28:02.128Z,8.18
2023-03-01T15:32:08.040Z,8.63
2023-03-01T15:36:33.853Z,7.88
2023-03-01T15:40:50.952Z,8.05
2023-03-01T15:45:10.246Z,8.02
2023-03-01T15:49:29.831Z,8.02
2023-03-01T15:53:33.144Z,8.45
2023-03-01T15:57:37.518Z,8.48
2023-03-01T16:01:40.545Z,7.28
2023-03-01T16:05:44.076Z,6.90
2023-03-01T16:09:47.224Z,7.80
2023-03-01T16:13:51.874Z,7.70
2023-03-01T16:17:55.275Z,7.78
2023-03-01T16:21:58.318Z,8.35
2023-03-01T16:26:01.674Z,8.43
2023-03-01T16:30:07.195Z,7.47
2023-03-01T16:34:10.924Z,8.00
2023-03-01T16:38:14.007Z,8.55
2023-03-01T16:42:17.441Z,7.70
2023-03-01T16:46:23.953Z,7.70
2023-03-01T16:50:27.274Z,8.05
2023-03-01T16:54:30.499Z,7.78
2023-03-01T16:58:33.623Z,8.20
2023-03-01T17:02:38.258Z,8.05
2023-03-01T17:06:41.596Z,8.38
2023-03-01T17:10:44.920Z,7.95
2023-03-01T17:14:50.082Z,9.13
2023-03-01T17:18:55.103Z,9.57
2023-03-01T17:22:58.861Z,9.23
2023-03-01T17:27:02.041Z,10.23
2023-03-01T17:31:06.802Z,10.00
2023-03-01T17:35:12.255Z,9.23
2023-03-01T17:39:15.455Z,9.52
2023-03-01T17:43:20.089Z,9.45
2023-03-01T17:47:23.205Z,10.13
2023-03-01T17:51:27.604Z,9.68
2023-03-01T17:55:30.868Z,9.68
2023-03-01T17:59:34.129Z,10.40
2023-03-01T18:03:37.413Z,9.68
2023-03-01T18:07:41.937Z,9.95
2023-03-01T18:11:46.921Z,10.02
2023-03-01T18:15:50.833Z,9.93
2023-03-01T18:19:56.224Z,9.88
2023-03-01T18:24:00.671Z,10.15
2023-03-01T18:28:04.540Z,9.85
2023-03-01T18:32:08.548Z,11.30
2023-03-01T18:36:20.270Z,10.32
2023-03-01T18:40:24.635Z,12.55
2023-03-01T18:44:27.756Z,11.27
2023-03-01T18:48:30.713Z,10.98
2023-03-01T18:52:33.750Z,10.82
2023-03-01T18:56:38.437Z,10.10
2023-03-01T19:00:41.691Z,10.80
2023-03-01T19:04:44.656Z,11.50
2023-03-01T19:08:48.297Z,11.57
2023-03-01T19:12:52.676Z,11.60
2023-03-01T19:16:55.780Z,11.38
2023-03-01T19:21:03.883Z,11.60
2023-03-01T19:25:08.554Z,10.90
2023-03-01T19:29:13.164Z,11.80
2023-03-01T19:33:16.184Z,11.35
2023-03-01T19:37:19.179Z,11.82
2023-03-01T19:41:22.707Z,12.32
2023-03-01T19:45:33.356Z,12.18
2023-03-01T19:49:37.841Z,11.98
2023-03-01T19:53:42.002Z,11.80
2023-03-01T19:57:45.296Z,11.30
2023-03-01T20:01:49.778Z,11.73
2023-03-01T20:05:52.936Z,12.18
2023-03-01T20:09:56.085Z,11.73
2023-03-01T20:13:59.232Z,11.07
2023-03-01T20:18:03.591Z,11.27
2023-03-01T20:22:06.795Z,12.40
2023-03-01T20:26:15.148Z,12.25
2023-03-01T20:30:18.741Z,11.52
2023-03-01T20:34:23.090Z,11.23
2023-03-01T20:38:27.238Z,12.23
2023-03-01T20:42:30.200Z,11.50
2023-03-01T20:46:34.822Z,12.02
2023-03-01T20:50:42.851Z,11.13
2023-03-01T20:54:45.930Z,11.85
2023-03-01T20:58:49.472Z,11.73
2023-03-01T21:02:52.827Z,11.85
2023-03-01T21:06:57.218Z,11.93
2023-03-01T21:11:00.836Z,11.73
2023-03-01T21:15:03.976Z,11.07
2023-03-01T21:19:07.422Z,11.50
2023-03-01T21:23:11.749Z,11.73
2023-03-01T21:27:14.804Z,12.35
2023-03-01T21:31:19.947Z,11.23
2023-03-01T21:35:23.152Z,12.73
2023-03-01T21:39:28.949Z,11.90
2023-03-01T21:43:32.081Z,13.13
2023-03-01T21:47:36.237Z,12.93
2023-03-01T21:51:39.698Z,13.93
2023-03-01T21:55:49.370Z,14.27
2023-03-01T21:59:52.393Z,15.38
2023-03-01T22:03:56.162Z,13.85
2023-03-01T22:07:59.272Z,15.18
2023-03-01T22:12:03.724Z,15.45
2023-03-01T22:16:07.733Z,15.82
2023-03-01T22:20:12.065Z,15.85
2023-03-01T22:24:15.215Z,15.85
2023-03-01T22:28:20.266Z,15.75
2023-03-01T22:32:23.532Z,17.00
2023-03-01T22:36:27.101Z,16.92
2023-03-01T22:40:30.244Z,16.45
2023-03-01T22:44:34.572Z,16.73
2023-03-01T22:48:37.639Z,17.67
2023-03-01T22:52:40.802Z,18.10
2023-03-01T22:56:44.236Z,16.85
2023-03-01T23:00:48.567Z,18.20
2023-03-01T23:04:54.178Z,16.77
2023-03-01T23:08:58.701Z,17.73
2023-03-01T23:13:01.737Z,18.63
2023-03-01T23:17:08.067Z,17.60
2023-03-01T23:21:12.699Z,18.88
2023-03-01T23:25:16.092Z,18.42
2023-03-01T23:29:19.110Z,19.20
2023-03-01T23:33:23.490Z,17.98
2023-03-01T23:37:31.163Z,18.25
2023-03-01T23:41:36.276Z,19.35
2023-03-01T23:45:42.983Z,19.85
2023-03-01T23:49:47.321Z,19.75
2023-03-01T23:53:55.318Z,18.58
2023-03-01T23:57:58.268Z,18.42
